LQSA/SJJ METAR and TAF weather

Enter ICAO airport designator
Station Type Date Time Source
LQSA METAR 2022/01/29 01:00 UTC NOAA

LQSA 290100Z 31005KT 3000 -SN BR FEW005 BKN030 OVC050 M00/M00 Q1026 RESN


Station Type Date Time Source
LQSA Decoded METAR 2022/01/29 01:00 UTC NOAA

Sarajevo, Bosnia and Herzegovina (LQSA) 43-49N 018-20E 510M
Jan 28, 2022 - 08:00 PM EST / 2022.01.29 0100 UTC
Wind: from the NW (310 degrees) at 6 MPH (5 KT):0
Visibility: 1 mile(s):0
Sky conditions: overcast
Weather: light snow; mist
Temperature: 32 F (0 C)
Windchill: 26 F (-3 C):1
Dew Point: 32 F (0 C)
Relative Humidity: 100%
Pressure (altimeter): 30.30 in. Hg (1026 hPa)
ob: LQSA 290100Z 31005KT 3000 -SN BR FEW005 BKN030 OVC050 M00/M00 Q1026 RESN
cycle: 1

Station Type Date Time Source
LQSA TAF 2022/01/28 18:06 UTC NOAA

TAF TAF LQSA 281700Z 2818/2918 30007KT 2500 -SN BR SCT018 BKN035 TX02/2914Z TNM04/2918Z
TEMPO 2821/2906 1200 SN BKN008 OVC020
BECMG 2907/2909 6000 NSW

Example: see airport list